Forman, North Dakota
Current Conditions -  °F | °C
As of 8:35 AM on Friday 31 Oct 2014 (Local Time) from KGWR Reporting Station
Clear Clear  
Wind Chill:   Ceiling: Unl
Heat Index: 18°   Visibility: 10mi
Dew Point: 14°   Wind: 6mph
Humidity: 86%   Direction: 10°N
Pressure: 30.61"   Gusts: NA
Location:  46.11°N, 97.64°W
Report Text: KGWR 311335Z AUTO 01005KT 10SM CLR M08/M10 A3061 RMK A01 P000
Loading
Personal Weather Stations






























Interactive Weather Map
Tropical Storm Tracking
New forecast layout! Learn more

10-Day Weather Forecast

Advertisements
Track Severe Weather on mobile